WetterOnline ( http://www.wetteronline.de )

Wetter aktuell Kaiserbach

Aktuelles Wetter: Kaisersbach-Cronhütte (489m)

6-stündlich | Neueste Meldungen
Ortszeit Temperatur Wetter
Do, 21.03. 7:00 -2.6° C leicht bewölkt
Do, 21.03. 1:00 -2.9° C wolkenlos
Mi, 20.03. 19:00 4.5° C wolkenlos
Mi, 20.03. 13:00 8.5° C wolkenlos
Mi, 20.03. 7:00 -4.6° C wolkenlos
Mi, 20.03. 1:00 -3.5° C wolkenlos
Di, 19.03. 19:00 2.0° C wolkenlos
Di, 19.03. 13:00 6.2° C wolkig
Ortszeit Temperatur Wetter
Do, 21.03. 10:00 7.1° C leicht bewölkt
Do, 21.03. 9:50 7.1° C wolkig
Do, 21.03. 9:40 6.8° C wolkig
Do, 21.03. 9:30 6.4° C wolkig
Do, 21.03. 9:20 6.4° C wolkig
Do, 21.03. 9:10 6.1° C wolkig
Do, 21.03. 9:00 5.5° C leicht bewölkt
Do, 21.03. 8:30 4.4° C wolkig
Do, 21.03. 8:00 2.6° C leicht bewölkt
Do, 21.03. 7:30 -0.6° C leicht bewölkt
Do, 21.03. 7:00 -2.6° C leicht bewölkt
Ortszeit Relative Feuchte Sichtweite
Do, 21.03. 7:00 87% 30 km
Do, 21.03. 1:00 91% 45 km
Mi, 20.03. 19:00 60% 70 km
Mi, 20.03. 13:00 40% 45 km
Mi, 20.03. 7:00 94% 25 km
Mi, 20.03. 1:00 93% 35 km
Di, 19.03. 19:00 73% 70 km
Di, 19.03. 13:00 49% 60 km
Ortszeit Relative Feuchte Sichtweite
Do, 21.03. 10:00 46% 21 km
Do, 21.03. 9:50 46% -
Do, 21.03. 9:40 44% -
Do, 21.03. 9:30 46% 28 km
Do, 21.03. 9:20 46% -
Do, 21.03. 9:10 46% -
Do, 21.03. 9:00 51% 29 km
Do, 21.03. 8:30 55% 35 km
Do, 21.03. 8:00 63% 40 km
Do, 21.03. 7:30 78% 40 km
Do, 21.03. 7:00 87% 30 km
Ortszeit Niederschlagsmenge Niederschlagsart
Do, 21.03. 7:00 0.0 l/m2 in 12 Std. -
Do, 21.03. 1:00 0.0 l/m2 in 6 Std. -
Mi, 20.03. 19:00 0.0 l/m2 in 12 Std. -
Mi, 20.03. 13:00 0.0 l/m2 in 6 Std. -
Mi, 20.03. 7:00 0.0 l/m2 in 12 Std. -
Mi, 20.03. 1:00 0.0 l/m2 in 6 Std. -
Di, 19.03. 19:00 0.0 l/m2 in 12 Std. -
Di, 19.03. 13:00 0.0 l/m2 in 6 Std. -
Ortszeit Niederschlagsmenge Niederschlagsart
Do, 21.03. 10:00 0.0 l/m2 in 1 Std. -
Do, 21.03. 9:50 keine Meldung -
Do, 21.03. 9:40 keine Meldung -
Do, 21.03. 9:30 0.0 l/m2 in 1 Std. -
Do, 21.03. 9:20 keine Meldung -
Do, 21.03. 9:10 keine Meldung -
Do, 21.03. 9:00 0.0 l/m2 in 1 Std. -
Do, 21.03. 8:30 0.0 l/m2 in 1 Std. -
Do, 21.03. 8:00 0.0 l/m2 in 1 Std. -
Do, 21.03. 7:30 0.0 l/m2 in 1 Std. -
Do, 21.03. 7:00 0.0 l/m2 in 1 Std. -
Ortszeit Stärke Spitze Richtung
km/h Bft. km/h Grad Sektor
Do, 21.03. 7:00 2 1 4 350° N
Do, 21.03. 1:00 0 0 4 - -
Mi, 20.03. 19:00 4 1 25 310° NW
Mi, 20.03. 13:00 6 1 22 50° NO
Mi, 20.03. 7:00 0 0 4 - -
Mi, 20.03. 1:00 0 0 4 - -
Di, 19.03. 19:00 2 1 20 320° NW
Di, 19.03. 13:00 7 2 14 20° N
Ortszeit Stärke Spitze Richtung
km/h Bft. km/h Grad Sektor
Do, 21.03. 10:00 17 3 28 70° O
Do, 21.03. 9:50 17 3 - 70° O
Do, 21.03. 9:40 17 3 - 80° O
Do, 21.03. 9:30 14 3 29 90° O
Do, 21.03. 9:20 14 3 - 90° O
Do, 21.03. 9:10 14 3 - 80° O
Do, 21.03. 9:00 13 3 22 80° O
Do, 21.03. 8:30 7 2 11 80° O
Do, 21.03. 8:00 4 1 7 100° O
Do, 21.03. 7:30 4 1 7 360° N
Do, 21.03. 7:00 2 1 4 350° N
Ortszeit Untergrenze Bedeckung Gattung
total tief tief mittel hoch
Do, 21.03. 7:00 10500 m 5/8 0/8 - - -
Do, 21.03. 1:00 - 0/8 0/8 - - -
Mi, 20.03. 19:00 - 0/8 0/8 - - -
Mi, 20.03. 13:00 - 0/8 0/8 - - -
Mi, 20.03. 7:00 - 0/8 0/8 - - -
Mi, 20.03. 1:00 - 0/8 0/8 - - -
Di, 19.03. 19:00 - 0/8 0/8 - - -
Di, 19.03. 13:00 1140 m 5/8 6/8 - - -
Ortszeit Bedeckungsgrad in Achtel und Wolkenuntergrenze
Do, 21.03. 10:00 8(10500m)
Do, 21.03. 9:50 8(10500m)
Do, 21.03. 9:40 8(10500m)
Do, 21.03. 9:30 8(10500m)
Do, 21.03. 9:20 8(10500m)
Do, 21.03. 9:10 8(10500m)
Do, 21.03. 9:00 8(10500m)
Do, 21.03. 8:30 8(10500m)
Do, 21.03. 8:00 8(10500m)
Do, 21.03. 7:30 6(10500m)
Do, 21.03. 7:00 5(10500m)
Ortszeit Luftdruck NN (hPa) Tendenz (hPa in 3 Std.)
Do, 21.03. 7:00 1037 0,0
Do, 21.03. 1:00 1038 - 0,1
Mi, 20.03. 19:00 1035 + 0,6
Mi, 20.03. 13:00 1035 + 0,2
Mi, 20.03. 7:00 1036 + 1,2
Mi, 20.03. 1:00 1035 + 1,0
Di, 19.03. 19:00 1031 + 1,5
Di, 19.03. 13:00 1028 + 0,4
Ortszeit Luftdruck NN (hPa) Tendenz (hPa in 3 Std.)
Do, 21.03. 10:00 1035 + 0,3
Do, 21.03. 9:50 1035 keine Meldung
Do, 21.03. 9:40 1035 keine Meldung
Do, 21.03. 9:30 1035 + 0,3
Do, 21.03. 9:20 1035 keine Meldung
Do, 21.03. 9:10 1035 keine Meldung
Do, 21.03. 9:00 1035 + 0,4
Do, 21.03. 8:30 1035 + 0,4
Do, 21.03. 8:00 1036 + 0,2
Do, 21.03. 7:30 1036 + 0,2
Do, 21.03. 7:00 1037 0,0
Ortszeit Schneehöhe (cm)
Do, 21.03. 7:00 0
Do, 21.03. 1:00 0
Mi, 20.03. 19:00 0
Mi, 20.03. 13:00 0
Mi, 20.03. 7:00 0
Mi, 20.03. 1:00 0
Di, 19.03. 19:00 0
Di, 19.03. 13:00 0
Ortszeit Schneehöhe (cm)
Do, 21.03. 10:00 0
Do, 21.03. 9:50 0
Do, 21.03. 9:40 0
Do, 21.03. 9:30 0
Do, 21.03. 9:20 0
Do, 21.03. 9:10 0
Do, 21.03. 9:00 0
Do, 21.03. 8:30 0
Do, 21.03. 8:00 0
Do, 21.03. 7:30 0
Do, 21.03. 7:00 0
Link zu dieser Seite / Seite empfehlen

Das Wetter in ...